Time;durP1;ratioP1;P1;durP2;ratioP2;P2;SDS_P1;SDS_P2;PMS_P1;PMS_P2;Temp;Humidity;BMP_temperature;BMP_pressure;BME280_temperature;BME280_humidity;BME280_pressure;Samples;Min_cycle;Max_cycle;Signal;HPM_P1;HPM_P2
2023/01/31 00:01:23;;;;;;;185.00;108.65;;;2.90;1.00;;;;;;4953726;29;20070;-73
2023/01/31 00:03:53;;;;;;;184.57;110.82;;;2.90;99.90;;;;;;4953079;28;20047;-75
2023/01/31 00:06:24;;;;;;;197.57;115.13;;;3.00;99.90;;;;;;4953290;29;20043;-73
2023/01/31 00:08:53;;;;;;;183.52;109.70;;;3.00;99.90;;;;;;4953956;28;20050;-74
2023/01/31 00:11:22;;;;;;;169.23;101.90;;;3.10;99.90;;;;;;4953483;29;20043;-75
2023/01/31 00:13:50;;;;;;;178.88;107.40;;;3.10;1.00;;;;;;4955590;29;20036;-74
2023/01/31 00:16:19;;;;;;;189.85;108.80;;;3.10;1.00;;;;;;4954386;28;20039;-74
2023/01/31 00:18:47;;;;;;;193.40;107.93;;;3.10;1.00;;;;;;4952343;28;20633;-75
2023/01/31 00:21:16;;;;;;;194.48;111.00;;;3.10;1.00;;;;;;4952417;28;20042;-73
2023/01/31 00:23:46;;;;;;;197.68;109.47;;;3.10;1.00;;;;;;4953551;29;20041;-75
2023/01/31 00:26:17;;;;;;;194.57;106.00;;;3.20;1.00;;;;;;4951587;29;20043;-75
2023/01/31 00:28:46;;;;;;;187.23;106.07;;;3.20;99.90;;;;;;4953058;28;20043;-75
2023/01/31 00:31:15;;;;;;;171.23;96.15;;;3.20;1.00;;;;;;4952796;28;20098;-74
2023/01/31 00:33:44;;;;;;;168.50;92.20;;;3.20;99.90;;;;;;4953666;29;20043;-73
2023/01/31 00:36:13;;;;;;;150.75;82.40;;;3.10;1.00;;;;;;4934905;29;20047;-73
2023/01/31 00:38:42;;;;;;;160.63;83.22;;;3.10;1.00;;;;;;4936544;29;20395;-74
2023/01/31 00:41:11;;;;;;;158.93;86.53;;;3.10;1.00;;;;;;4936122;29;20051;-73
2023/01/31 00:43:40;;;;;;;142.13;79.10;;;3.20;1.00;;;;;;4959165;28;20036;-74
2023/01/31 00:46:07;;;;;;;139.10;77.00;;;3.10;99.90;;;;;;4940081;29;20483;-74
2023/01/31 00:48:35;;;;;;;129.45;69.43;;;3.10;99.90;;;;;;4934853;29;20062;-73
2023/01/31 00:51:03;;;;;;;141.27;75.22;;;3.10;99.90;;;;;;4935564;29;20047;-73
2023/01/31 00:53:30;;;;;;;142.05;75.15;;;3.10;1.00;;;;;;4952191;29;20134;-73
2023/01/31 00:56:04;;;;;;;133.88;69.80;;;3.10;1.00;;;;;;4952646;28;20047;-73
2023/01/31 00:58:32;;;;;;;132.82;73.32;;;3.10;1.00;;;;;;4934355;29;20082;-73
2023/01/31 01:01:07;;;;;;;135.73;77.15;;;3.10;1.00;;;;;;4935230;29;20051;-73
2023/01/31 01:03:34;;;;;;;147.73;78.72;;;3.10;1.00;;;;;;4938301;29;20043;-75
2023/01/31 01:06:03;;;;;;;149.18;78.68;;;3.10;1.00;;;;;;4943372;29;20110;-74
2023/01/31 01:08:30;;;;;;;190.13;83.75;;;3.10;1.00;;;;;;4951721;29;20602;-74
2023/01/31 01:11:04;;;;;;;179.80;83.97;;;3.10;1.00;;;;;;4936623;29;20035;-73
2023/01/31 01:13:35;;;;;;;189.35;83.90;;;3.00;1.00;;;;;;4935836;29;20054;-73
2023/01/31 01:16:07;;;;;;;183.95;81.90;;;2.80;1.00;;;;;;4952184;28;20098;-72
2023/01/31 01:18:35;;;;;;;171.45;80.07;;;2.70;1.00;;;;;;4948737;29;20039;-74
2023/01/31 01:21:09;;;;;;;182.35;86.20;;;2.70;10.80;;;;;;4934479;29;20091;-73
2023/01/31 01:23:37;;;;;;;188.93;82.88;;;2.70;1.00;;;;;;4939296;29;20407;-73
2023/01/31 01:26:05;;;;;;;191.13;82.50;;;2.70;1.00;;;;;;4961068;29;20040;-74
2023/01/31 01:28:35;;;;;;;201.93;86.25;;;2.70;1.00;;;;;;4935696;29;20054;-75
2023/01/31 01:31:06;;;;;;;207.65;85.28;;;2.70;99.90;;;;;;4951630;29;20047;-73
2023/01/31 01:33:33;;;;;;;202.85;86.00;;;2.80;99.90;;;;;;4950989;28;20049;-74
2023/01/31 01:36:01;;;;;;;211.43;87.82;;;2.80;42.60;;;;;;4951633;28;20047;-74
2023/01/31 01:38:28;;;;;;;206.57;89.47;;;2.80;1.00;;;;;;4950945;28;20039;-74
2023/01/31 01:40:56;;;;;;;197.27;86.30;;;2.80;1.00;;;;;;4951853;28;20046;-74
2023/01/31 01:46:25;;;;;;;194.52;86.20;;;2.80;1.00;;;;;;5120899;27;20410;-74
2023/01/31 01:48:57;;;;;;;215.03;93.07;;;2.80;99.90;;;;;;5114345;28;20058;-73
2023/01/31 01:51:26;;;;;;;195.48;89.32;;;2.80;1.00;;;;;;5116597;28;20288;-74
2023/01/31 01:53:56;;;;;;;202.05;90.00;;;2.80;1.00;;;;;;5114670;28;20039;-73
2023/01/31 01:56:31;;;;;;;212.05;97.13;;;2.80;99.90;;;;;;5115168;27;20051;-73
2023/01/31 01:59:05;;;;;;;210.57;92.60;;;2.70;1.00;;;;;;5116475;28;20051;-75
2023/01/31 02:01:37;;;;;;;215.55;97.32;;;2.70;1.00;;;;;;5114907;27;20039;-73
2023/01/31 02:04:10;;;;;;;;;;;2.70;1.00;;;;;;5114839;28;20589;-73
2023/01/31 02:06:38;;;;;;;211.65;97.20;;;2.70;1.00;;;;;;5115613;28;19926;-73
2023/01/31 02:09:11;;;;;;;218.07;96.00;;;2.70;1.00;;;;;;5114467;27;20078;-73
2023/01/31 02:11:39;;;;;;;208.23;95.05;;;2.70;83.10;;;;;;5132855;27;20134;-74
2023/01/31 02:14:09;;;;;;;201.80;92.30;;;2.70;99.90;;;;;;5117382;28;20039;-74
2023/01/31 02:16:38;;;;;;;208.68;98.13;;;2.70;73.40;;;;;;5115183;27;20097;-73
2023/01/31 02:19:12;;;;;;;206.82;95.65;;;2.70;1.00;;;;;;5113846;28;20071;-73
2023/01/31 02:22:07;;;;;;;240.07;105.75;;;2.80;45.10;;;;;;5116597;28;20138;-74
2023/01/31 02:25:13;;;;;;;216.38;95.88;;;2.70;1.00;;;;;;5115784;27;20050;-73
2023/01/31 02:28:24;;;;;;;237.07;105.38;;;2.70;1.00;;;;;;5113423;27;20058;-74
2023/01/31 02:31:35;;;;;;;246.85;108.60;;;2.70;1.00;;;;;;5108204;28;20538;-74
2023/01/31 02:34:10;;;;;;;228.85;102.95;;;2.70;1.00;;;;;;5115535;27;20048;-74
2023/01/31 02:36:52;;;;;;;219.98;96.18;;;2.70;1.00;;;;;;5115004;27;20035;-72
2023/01/31 02:39:28;;;;;;;208.82;100.05;;;2.60;1.00;;;;;;5111616;27;20139;-73
2023/01/31 02:42:05;;;;;;;221.55;101.15;;;2.50;99.90;;;;;;5113610;27;20042;-75
2023/01/31 02:47:44;;;;;;;218.02;100.18;;;2.60;1.00;;;;;;5112245;28;20058;-73
2023/01/31 02:50:23;;;;;;;222.27;93.95;;;2.60;1.00;;;;;;5114264;28;20043;-74
2023/01/31 02:52:58;;;;;;;207.30;97.25;;;2.60;1.00;;;;;;5119148;27;20039;-74
2023/01/31 02:58:22;;;;;;;221.23;93.28;;;2.60;99.90;;;;;;5100890;28;20452;-72
2023/01/31 03:00:50;;;;;;;224.05;97.20;;;2.70;99.90;;;;;;5100321;28;20510;-74
2023/01/31 03:03:22;;;;;;;244.30;95.57;;;2.60;99.90;;;;;;5098988;28;20659;-73
2023/01/31 03:06:13;;;;;;;235.27;94.97;;;2.60;99.90;;;;;;5099827;28;20052;-73
2023/01/31 03:08:44;;;;;;;239.52;95.75;;;2.70;99.90;;;;;;5101345;28;20036;-74
2023/01/31 03:11:12;;;;;;;237.10;98.32;;;2.60;99.90;;;;;;5101772;28;20040;-74
2023/01/31 03:13:55;;;;;;;226.82;90.97;;;2.60;99.90;;;;;;5100322;28;20054;-73
2023/01/31 03:19:19;;;;;;;240.43;94.50;;;2.50;99.90;;;;;;5099823;28;20043;-74
2023/01/31 03:21:52;;;;;;;228.82;94.63;;;2.60;99.90;;;;;;5099856;28;20093;-73
2023/01/31 03:24:25;;;;;;;229.73;92.95;;;2.60;99.90;;;;;;5100828;28;20036;-74
2023/01/31 03:26:55;;;;;;;229.57;94.65;;;2.60;99.90;;;;;;5099455;28;20047;-72
2023/01/31 03:29:26;;;;;;;238.93;93.57;;;2.60;99.90;;;;;;5099388;28;20048;-73
2023/01/31 03:31:58;;;;;;;230.20;93.60;;;2.70;99.90;;;;;;5099357;28;20047;-73
2023/01/31 03:34:26;;;;;;;219.00;87.40;;;2.60;99.90;;;;;;5099154;28;20040;-74
2023/01/31 03:37:01;;;;;;;222.93;92.63;;;2.70;99.90;;;;;;5100563;28;20708;-72
2023/01/31 03:39:46;;;;;;;233.60;97.63;;;2.70;99.90;;;;;;5102310;28;20120;-73
2023/01/31 03:42:22;;;;;;;221.75;90.35;;;2.70;99.90;;;;;;5106895;28;20636;-74
2023/01/31 03:44:58;;;;;;;217.18;90.80;;;2.70;99.90;;;;;;5101270;28;20048;-73
2023/01/31 03:47:30;;;;;;;222.55;91.88;;;2.70;99.90;;;;;;5099424;28;20056;-74
2023/01/31 03:50:07;;;;;;;222.90;90.65;;;2.70;99.90;;;;;;5100942;28;20062;-74
2023/01/31 03:52:40;;;;;;;242.25;96.97;;;2.70;99.90;;;;;;5117151;27;20040;-74
2023/01/31 03:55:15;;;;;;;221.73;90.80;;;2.70;99.90;;;;;;5097121;28;20124;-74
2023/01/31 03:57:44;;;;;;;219.35;92.72;;;2.70;99.90;;;;;;5098330;28;20143;-72
2023/01/31 04:00:15;;;;;;;226.80;94.55;;;2.70;99.90;;;;;;5097920;28;20043;-74
2023/01/31 04:02:48;;;;;;;230.55;96.63;;;2.80;99.90;;;;;;5099452;28;20044;-73
2023/01/31 04:05:19;;;;;;;224.75;92.97;;;2.80;99.90;;;;;;5099249;28;20486;-74
2023/01/31 04:07:49;;;;;;;238.20;97.57;;;2.70;99.90;;;;;;5098124;28;20040;-73
2023/01/31 04:10:25;;;;;;;236.57;96.97;;;2.70;99.90;;;;;;5098610;28;20635;-74
2023/01/31 04:12:52;;;;;;;238.27;97.68;;;2.60;99.90;;;;;;5099543;28;20306;-73
2023/01/31 04:15:20;;;;;;;228.32;92.60;;;2.60;99.90;;;;;;5099216;28;20050;-74
2023/01/31 04:17:48;;;;;;;245.43;97.95;;;2.60;99.90;;;;;;5095652;28;20082;-73
2023/01/31 04:20:16;;;;;;;237.60;101.28;;;2.50;99.90;;;;;;5100940;28;20043;-73
2023/01/31 04:22:43;;;;;;;229.48;95.65;;;2.50;99.90;;;;;;5099929;28;20055;-73
2023/01/31 04:25:12;;;;;;;231.23;101.90;;;2.50;99.90;;;;;;5101469;28;20048;-73
2023/01/31 04:27:39;;;;;;;243.48;105.60;;;2.50;99.90;;;;;;5098834;28;20055;-72
2023/01/31 04:30:08;;;;;;;236.13;103.95;;;2.50;99.90;;;;;;5100856;28;20035;-73
2023/01/31 04:32:35;;;;;;;243.32;103.88;;;2.40;99.90;;;;;;5100447;28;20073;-74
2023/01/31 04:35:03;;;;;;;229.13;103.93;;;2.40;99.90;;;;;;5099530;28;20101;-73
2023/01/31 04:37:30;;;;;;;232.25;97.50;;;2.40;99.90;;;;;;5099050;28;20028;-75
2023/01/31 04:39:58;;;;;;;253.45;105.45;;;2.40;99.90;;;;;;5099895;28;20032;-73
2023/01/31 04:42:27;;;;;;;242.50;99.47;;;2.40;99.90;;;;;;5101295;28;20043;-72
2023/01/31 04:44:54;;;;;;;248.77;108.18;;;2.40;99.90;;;;;;5110150;28;20044;-73
2023/01/31 04:47:21;;;;;;;244.70;104.30;;;2.40;99.90;;;;;;5106635;28;20070;-73
2023/01/31 04:49:49;;;;;;;256.10;105.97;;;2.40;99.90;;;;;;5098649;28;20040;-76
2023/01/31 04:52:16;;;;;;;258.23;109.43;;;2.40;99.90;;;;;;5099712;28;20040;-73
2023/01/31 04:54:44;;;;;;;236.93;103.72;;;2.50;99.90;;;;;;5102372;28;20039;-73
2023/01/31 04:57:11;;;;;;;227.18;98.60;;;2.50;99.90;;;;;;5104086;28;20039;-73
2023/01/31 04:59:40;;;;;;;235.57;100.53;;;2.50;99.90;;;;;;5101836;28;20036;-73
2023/01/31 05:02:07;;;;;;;228.68;100.50;;;2.50;99.90;;;;;;5100516;28;20040;-72
2023/01/31 05:04:35;;;;;;;220.13;95.35;;;2.50;99.90;;;;;;5098444;28;20533;-73
2023/01/31 05:07:02;;;;;;;197.32;89.63;;;2.50;99.90;;;;;;5099683;28;20494;-73
2023/01/31 05:09:30;;;;;;;209.35;95.25;;;2.50;99.90;;;;;;5099456;28;20123;-72
2023/01/31 05:11:58;;;;;;;197.40;92.57;;;2.50;99.90;;;;;;5098955;28;20058;-73
2023/01/31 05:14:26;;;;;;;191.52;89.50;;;2.50;99.90;;;;;;5100204;28;20119;-74
2023/01/31 05:16:55;;;;;;;189.90;87.97;;;2.50;99.90;;;;;;5100385;28;20127;-73
2023/01/31 05:19:22;;;;;;;194.35;86.72;;;2.50;99.90;;;;;;5099232;28;20042;-74
2023/01/31 05:21:57;;;;;;;200.50;91.10;;;2.40;99.90;;;;;;5100551;28;20054;-73
2023/01/31 05:24:26;;;;;;;195.57;88.55;;;2.40;99.90;;;;;;5100243;28;20122;-73
2023/01/31 05:26:57;;;;;;;194.20;87.32;;;2.40;99.90;;;;;;5099991;28;20043;-73
2023/01/31 05:29:25;;;;;;;201.95;91.07;;;2.40;99.90;;;;;;5100883;28;20114;-73
2023/01/31 05:31:55;;;;;;;238.05;100.40;;;2.40;99.90;;;;;;5106882;28;20105;-73
2023/01/31 05:34:24;;;;;;;252.48;105.57;;;2.40;99.90;;;;;;5105151;28;20040;-73
2023/01/31 05:36:53;;;;;;;248.38;105.13;;;2.40;99.90;;;;;;5099887;28;20487;-73
2023/01/31 05:39:21;;;;;;;248.00;101.95;;;2.40;99.90;;;;;;5101383;28;20130;-73
2023/01/31 05:41:48;;;;;;;236.98;101.43;;;2.30;99.90;;;;;;5101537;28;20127;-74
2023/01/31 05:44:16;;;;;;;247.13;104.82;;;2.30;99.90;;;;;;5099944;28;20071;-74
2023/01/31 05:46:43;;;;;;;237.23;104.50;;;2.30;99.90;;;;;;5100506;28;20055;-73
2023/01/31 05:49:12;;;;;;;242.27;105.35;;;2.30;99.90;;;;;;5099321;28;20048;-73
2023/01/31 05:51:40;;;;;;;210.95;98.47;;;2.40;99.90;;;;;;5098627;28;20529;-73
2023/01/31 05:54:08;;;;;;;234.45;97.13;;;2.40;99.90;;;;;;5098530;28;20044;-73
2023/01/31 05:56:35;;;;;;;255.20;102.28;;;2.40;99.90;;;;;;5099176;28;20044;-74
2023/01/31 05:59:03;;;;;;;296.27;109.28;;;2.50;99.90;;;;;;5098518;28;20043;-73
2023/01/31 06:01:30;;;;;;;307.38;110.65;;;2.50;99.90;;;;;;5098033;28;20048;-73
2023/01/31 06:03:58;;;;;;;285.73;110.00;;;2.50;99.90;;;;;;5099041;28;20059;-73
2023/01/31 06:06:27;;;;;;;290.70;107.63;;;2.50;99.90;;;;;;5099839;28;20044;-74
2023/01/31 06:08:54;;;;;;;296.85;108.63;;;2.40;99.90;;;;;;5099556;28;20089;-74
2023/01/31 06:11:24;;;;;;;298.70;114.40;;;2.40;99.90;;;;;;5100451;28;20127;-72
2023/01/31 06:13:51;;;;;;;304.75;112.55;;;2.40;99.90;;;;;;5098042;28;20044;-73
2023/01/31 06:16:18;;;;;;;299.85;109.80;;;2.40;99.90;;;;;;5101159;28;20050;-74
2023/01/31 06:18:46;;;;;;;290.75;110.03;;;2.40;99.90;;;;;;5104928;28;20038;-74
2023/01/31 06:21:15;;;;;;;259.80;110.78;;;2.40;99.90;;;;;;5101440;28;20064;-73
2023/01/31 06:23:45;;;;;;;253.18;112.03;;;2.40;99.90;;;;;;5100175;28;20119;-73
2023/01/31 06:26:13;;;;;;;278.42;117.30;;;2.50;99.90;;;;;;5099520;28;20036;-74
2023/01/31 06:28:40;;;;;;;281.90;119.28;;;2.40;99.90;;;;;;5098110;28;20506;-74
2023/01/31 06:31:09;;;;;;;295.75;123.72;;;2.40;99.90;;;;;;5100471;28;20046;-73
2023/01/31 06:33:36;;;;;;;274.83;112.47;;;2.50;99.90;;;;;;5104614;28;20040;-73
2023/01/31 06:36:05;;;;;;;273.27;111.05;;;2.60;99.90;;;;;;5102563;28;20118;-73
2023/01/31 06:38:33;;;;;;;273.58;110.38;;;2.60;99.90;;;;;;5102177;28;20050;-74
2023/01/31 06:41:02;;;;;;;282.92;109.30;;;2.60;99.90;;;;;;5102737;28;20113;-74
2023/01/31 06:43:30;;;;;;;294.52;117.43;;;2.70;99.90;;;;;;5103981;28;20061;-74
2023/01/31 06:45:57;;;;;;;285.02;114.35;;;2.60;99.90;;;;;;5101529;28;20495;-74
2023/01/31 06:48:24;;;;;;;291.58;117.15;;;2.70;99.90;;;;;;5101500;28;20044;-73
2023/01/31 06:50:52;;;;;;;242.48;115.57;;;2.70;99.90;;;;;;5102016;28;20044;-75
2023/01/31 06:53:19;;;;;;;286.00;136.77;;;2.80;99.90;;;;;;5101752;28;20075;-74
2023/01/31 06:55:47;;;;;;;296.60;147.38;;;2.80;99.90;;;;;;5102577;28;20067;-74
2023/01/31 06:58:16;;;;;;;283.77;135.13;;;2.90;1.00;;;;;;5102689;28;20118;-73
2023/01/31 07:00:43;;;;;;;266.13;123.50;;;2.80;1.00;;;;;;5100379;28;20047;-74
2023/01/31 07:03:11;;;;;;;245.25;111.47;;;2.80;1.00;;;;;;5108709;28;20263;-74
2023/01/31 07:05:39;;;;;;;282.08;127.78;;;2.90;1.00;;;;;;5113842;28;20238;-76
2023/01/31 07:08:06;;;;;;;279.55;128.00;;;2.90;1.00;;;;;;5110715;28;20050;-75
2023/01/31 07:10:34;;;;;;;305.00;138.35;;;2.80;1.00;;;;;;5112829;28;20534;-74
2023/01/31 07:13:01;;;;;;;294.95;132.95;;;2.80;1.00;;;;;;5103961;28;20048;-74
2023/01/31 07:15:31;;;;;;;352.20;183.20;;;2.90;1.00;;;;;;5102797;28;20092;-75
2023/01/31 07:17:59;;;;;;;289.45;142.02;;;2.90;1.00;;;;;;5102980;28;20044;-73
2023/01/31 07:20:27;;;;;;;285.40;140.52;;;2.90;99.90;;;;;;5110889;28;20039;-74
2023/01/31 07:22:55;;;;;;;290.25;147.60;;;3.00;1.00;;;;;;5109532;28;20070;-75
2023/01/31 07:25:23;;;;;;;301.73;144.73;;;3.10;99.90;;;;;;5103973;28;20043;-74
2023/01/31 07:27:50;;;;;;;289.25;139.93;;;3.20;99.90;;;;;;5100553;28;20071;-74
2023/01/31 07:30:18;;;;;;;284.15;139.38;;;3.30;1.00;;;;;;5099536;28;20052;-75
2023/01/31 07:32:47;;;;;;;254.80;123.55;;;3.40;99.90;;;;;;5102213;28;20537;-75
2023/01/31 07:35:15;;;;;;;268.25;123.63;;;3.30;82.70;;;;;;5101076;28;20111;-75
2023/01/31 07:37:42;;;;;;;271.90;123.65;;;3.10;99.90;;;;;;5100489;28;20040;-76
2023/01/31 07:40:11;;;;;;;293.10;128.43;;;3.10;1.00;;;;;;5102091;28;20036;-75
2023/01/31 07:42:40;;;;;;;294.30;129.60;;;3.00;25.40;;;;;;5103475;28;20047;-75
2023/01/31 07:45:09;;;;;;;296.33;127.00;;;3.00;99.90;;;;;;5101129;28;20056;-74
2023/01/31 07:47:36;;;;;;;314.05;130.32;;;3.00;1.00;;;;;;5098721;28;20647;-79
2023/01/31 07:50:06;;;;;;;314.10;131.68;;;3.00;1.00;;;;;;5102996;28;20467;-75
2023/01/31 07:52:33;;;;;;;338.85;138.43;;;3.00;1.00;;;;;;5101514;28;20089;-75
2023/01/31 07:55:02;;;;;;;332.20;142.57;;;3.10;81.10;;;;;;5101752;28;20043;-80
2023/01/31 07:57:31;;;;;;;350.90;142.27;;;3.30;34.20;;;;;;5097093;28;20040;-79
2023/01/31 07:59:59;;;;;;;340.50;142.68;;;3.50;1.00;;;;;;5101769;28;20490;-79
2023/01/31 08:05:53;;;;;;;311.17;130.13;;;3.80;1.00;;;;;;5123217;28;20040;-78
2023/01/31 08:08:22;;;;;;;307.92;124.57;;;4.10;72.20;;;;;;5098077;28;20064;-78
2023/01/31 08:11:12;;;;;;;312.92;134.43;;;4.50;1.00;;;;;;5104442;28;20047;-79
2023/01/31 08:14:22;;;;;;;329.75;129.23;;;4.70;1.00;;;;;;5101835;28;20104;-81
2023/01/31 08:17:07;;;;;;;323.00;132.88;;;4.70;1.00;;;;;;5001576;28;20108;-78
2023/01/31 08:19:45;;;;;;;312.73;130.65;;;4.90;1.00;;;;;;5017011;28;20073;-79
2023/01/31 08:22:18;;;;;;;303.05;129.57;;;5.10;1.00;;;;;;5078091;28;20075;-77
2023/01/31 08:24:47;;;;;;;305.88;136.25;;;5.20;99.90;;;;;;5099174;28;20036;-74
2023/01/31 08:27:15;;;;;;;303.35;129.88;;;5.30;1.00;;;;;;5095814;28;20039;-76
2023/01/31 08:29:42;;;;;;;306.40;133.57;;;5.00;1.00;;;;;;5099699;28;20051;-74
2023/01/31 08:32:10;;;;;;;312.63;133.88;;;5.00;1.00;;;;;;5099666;28;20046;-74
2023/01/31 08:34:37;;;;;;;331.33;142.82;;;5.20;1.00;;;;;;5100158;28;20042;-73
2023/01/31 08:37:05;;;;;;;324.67;137.63;;;5.10;1.00;;;;;;5101349;28;20044;-74
2023/01/31 08:39:32;;;;;;;303.15;133.15;;;5.00;1.00;;;;;;5099138;28;20047;-74
2023/01/31 08:42:01;;;;;;;318.05;142.23;;;4.80;1.00;;;;;;5099736;28;20040;-73
2023/01/31 08:44:29;;;;;;;312.17;137.45;;;4.80;1.00;;;;;;5102511;28;20070;-74
2023/01/31 08:46:57;;;;;;;320.30;146.57;;;4.90;1.00;;;;;;5106385;28;20048;-75
2023/01/31 08:49:25;;;;;;;313.60;142.02;;;4.90;1.00;;;;;;5100785;28;20044;-74
2023/01/31 08:51:52;;;;;;;328.20;146.27;;;4.90;1.00;;;;;;5100421;28;20048;-74
2023/01/31 08:54:20;;;;;;;319.83;146.48;;;4.90;1.00;;;;;;5101435;28;20043;-74
2023/01/31 08:56:47;;;;;;;349.90;155.45;;;5.00;1.00;;;;;;5103493;28;20048;-75
2023/01/31 08:59:16;;;;;;;338.73;150.63;;;5.10;1.00;;;;;;5099774;28;20055;-74
2023/01/31 09:01:45;;;;;;;354.25;153.80;;;5.00;1.00;;;;;;5098489;28;20044;-74
2023/01/31 09:04:12;;;;;;;333.50;147.48;;;5.00;1.00;;;;;;5100635;28;20396;-75
2023/01/31 09:06:40;;;;;;;328.05;146.52;;;4.90;1.00;;;;;;5100838;28;20040;-77
2023/01/31 09:09:07;;;;;;;313.85;133.82;;;4.70;1.00;;;;;;5098684;28;20048;-75
2023/01/31 09:11:35;;;;;;;301.05;134.88;;;4.60;1.00;;;;;;5101434;28;20105;-75
2023/01/31 09:14:02;;;;;;;294.77;129.68;;;4.60;99.90;;;;;;5102098;28;20039;-74
2023/01/31 09:16:31;;;;;;;296.45;128.88;;;4.60;1.00;;;;;;5101401;28;20044;-75
2023/01/31 09:18:59;;;;;;;295.63;130.02;;;4.50;55.10;;;;;;5099743;28;20093;-75
2023/01/31 09:21:26;;;;;;;300.33;132.40;;;4.60;99.90;;;;;;5100569;28;20039;-75
2023/01/31 09:24:01;;;;;;;295.48;126.25;;;4.60;95.50;;;;;;5102832;28;20046;-74
2023/01/31 09:26:28;;;;;;;254.63;111.60;;;4.60;1.00;;;;;;5101182;28;20035;-75
2023/01/31 09:28:56;;;;;;;254.00;110.00;;;4.40;99.90;;;;;;5100765;28;20548;-75
2023/01/31 09:31:24;;;;;;;267.25;114.85;;;4.40;99.90;;;;;;5100097;28;20036;-74
2023/01/31 09:33:53;;;;;;;261.13;119.20;;;4.40;23.10;;;;;;5098454;28;20031;-75
2023/01/31 09:36:23;;;;;;;252.60;112.78;;;4.50;1.00;;;;;;5099715;28;20043;-74
2023/01/31 09:38:54;;;;;;;245.55;109.15;;;4.60;1.00;;;;;;5099270;28;20483;-74
2023/01/31 09:41:28;;;;;;;218.23;100.13;;;4.70;1.00;;;;;;5101424;28;20074;-76
2023/01/31 09:43:58;;;;;;;224.23;105.97;;;4.70;1.00;;;;;;5097506;28;20044;-77
2023/01/31 09:46:32;;;;;;;228.18;104.22;;;4.90;99.90;;;;;;5098116;28;20040;-75
2023/01/31 09:49:04;;;;;;;223.93;100.45;;;5.00;99.90;;;;;;5097655;28;20092;-75
2023/01/31 09:51:33;;;;;;;204.50;96.70;;;5.10;99.90;;;;;;5099367;28;20036;-75
2023/01/31 09:54:02;;;;;;;193.90;92.22;;;5.20;99.90;;;;;;5098266;28;20040;-74
2023/01/31 09:56:35;;;;;;;175.80;82.63;;;5.30;99.90;;;;;;5098866;28;20122;-75
2023/01/31 09:59:13;;;;;;;148.90;72.38;;;5.30;99.90;;;;;;5097268;28;20047;-75
2023/01/31 10:01:48;;;;;;;141.85;71.32;;;5.40;94.20;;;;;;5098763;28;20048;-74
2023/01/31 10:04:39;;;;;;;140.77;68.55;;;5.40;32.30;;;;;;5098892;28;20071;-75
2023/01/31 10:07:12;;;;;;;151.20;70.57;;;5.40;56.80;;;;;;5100015;28;20081;-75
2023/01/31 10:09:44;;;;;;;144.65;73.03;;;5.40;99.90;;;;;;5101454;28;20047;-75
2023/01/31 10:12:15;;;;;;;149.75;73.18;;;5.60;99.90;;;;;;5103104;28;20042;-76
2023/01/31 10:14:49;;;;;;;160.07;77.35;;;5.70;1.00;;;;;;5102048;28;20050;-75
2023/01/31 10:17:20;;;;;;;162.57;77.72;;;5.80;1.00;;;;;;5104004;28;20096;-75
2023/01/31 10:19:54;;;;;;;157.30;74.85;;;5.80;1.00;;;;;;5102215;28;20039;-74
2023/01/31 10:22:29;;;;;;;154.30;71.40;;;5.90;1.00;;;;;;5103160;28;20048;-75
2023/01/31 10:25:00;;;;;;;152.53;72.77;;;6.00;1.00;;;;;;5102744;28;20059;-74
2023/01/31 10:27:40;;;;;;;148.32;74.43;;;6.20;1.00;;;;;;5102355;28;20028;-75
2023/01/31 10:30:15;;;;;;;151.52;73.13;;;6.40;1.00;;;;;;5102905;28;20044;-75
2023/01/31 10:32:47;;;;;;;132.68;64.53;;;6.40;1.00;;;;;;5102579;28;20054;-74
2023/01/31 10:35:21;;;;;;;122.95;61.67;;;6.50;1.00;;;;;;5102995;28;20052;-75
2023/01/31 10:37:53;;;;;;;104.85;56.60;;;6.50;1.00;;;;;;5102223;28;20044;-75
2023/01/31 10:40:29;;;;;;;83.47;43.95;;;6.60;1.00;;;;;;5102288;28;20040;-76
2023/01/31 10:43:01;;;;;;;70.22;38.92;;;6.60;1.00;;;;;;5103019;28;20490;-75
2023/01/31 10:45:29;;;;;;;62.83;34.65;;;6.60;1.00;;;;;;5102949;28;20050;-75
2023/01/31 10:48:08;;;;;;;56.35;33.65;;;6.70;1.00;;;;;;5102162;28;20043;-75
2023/01/31 10:50:44;;;;;;;60.90;34.17;;;6.60;1.00;;;;;;5102519;28;20051;-75
2023/01/31 10:53:31;;;;;;;60.65;35.60;;;6.60;1.00;;;;;;5101204;28;20043;-76
2023/01/31 10:56:03;;;;;;;;;;;6.90;1.00;;;;;;5104145;28;20036;-75
2023/01/31 10:58:31;;;;;;;60.53;32.30;;;7.00;1.00;;;;;;5100695;28;20003;-75
2023/01/31 11:01:00;;;;;;;54.55;30.48;;;7.00;1.00;;;;;;5102315;28;20474;-75
2023/01/31 11:03:27;;;;;;;54.63;31.83;;;6.80;1.00;;;;;;5104229;28;20063;-74
2023/01/31 11:05:57;;;;;;;51.88;30.85;;;6.60;1.00;;;;;;5102305;28;20036;-74
2023/01/31 11:08:31;;;;;;;52.05;30.15;;;6.60;1.00;;;;;;5098616;28;20048;-75
2023/01/31 11:11:04;;;;;;;49.17;28.98;;;6.60;1.00;;;;;;5099294;28;20220;-75
2023/01/31 11:13:31;;;;;;;57.92;31.80;;;6.60;1.00;;;;;;5100733;28;20040;-74
2023/01/31 11:16:01;;;;;;;54.13;31.15;;;6.60;1.00;;;;;;5100940;28;20048;-75
2023/01/31 11:18:31;;;;;;;56.63;32.05;;;6.50;1.00;;;;;;5100847;28;20047;-75
2023/01/31 11:21:02;;;;;;;53.35;29.20;;;6.50;1.00;;;;;;5102854;28;20505;-74
2023/01/31 11:23:32;;;;;;;61.10;32.40;;;6.40;1.00;;;;;;5111559;28;20051;-75
2023/01/31 11:26:00;;;;;;;66.18;34.70;;;6.30;1.00;;;;;;5112980;28;20046;-76
2023/01/31 11:28:35;;;;;;;58.05;33.28;;;6.30;1.00;;;;;;5102894;28;20051;-75
2023/01/31 11:31:05;;;;;;;60.92;34.88;;;6.20;1.00;;;;;;5103735;28;20039;-75
2023/01/31 11:33:44;;;;;;;62.60;34.67;;;6.20;1.00;;;;;;5105744;28;20101;-74
2023/01/31 11:36:15;;;;;;;61.80;35.10;;;6.20;1.00;;;;;;5103374;28;20574;-75
2023/01/31 11:38:44;;;;;;;66.00;37.28;;;6.20;1.00;;;;;;5098480;28;20046;-75
2023/01/31 11:41:29;;;;;;;64.18;37.20;;;6.30;1.00;;;;;;5102422;28;20522;-74
2023/01/31 11:44:14;;;;;;;68.07;38.00;;;6.30;1.00;;;;;;5100259;28;20044;-75
2023/01/31 11:46:49;;;;;;;64.20;39.05;;;6.30;1.00;;;;;;5102842;28;20040;-75
2023/01/31 11:49:39;;;;;;;66.57;36.03;;;6.40;1.00;;;;;;5099499;28;20050;-74
2023/01/31 11:52:15;;;;;;;66.15;39.10;;;6.40;1.00;;;;;;5097498;28;20060;-74
2023/01/31 11:54:47;;;;;;;74.63;43.65;;;6.40;1.00;;;;;;5100238;28;20097;-74
2023/01/31 11:57:16;;;;;;;75.90;42.47;;;6.60;1.00;;;;;;5101941;28;20044;-75
2023/01/31 11:59:44;;;;;;;61.35;35.28;;;6.70;1.00;;;;;;5101047;28;20685;-73
2023/01/31 12:02:27;;;;;;;62.50;34.72;;;6.50;1.00;;;;;;5101028;28;20123;-75
2023/01/31 12:04:55;;;;;;;68.47;38.90;;;6.60;1.00;;;;;;5100302;28;20036;-75
2023/01/31 12:07:27;;;;;;;69.07;38.85;;;6.50;1.00;;;;;;5101075;28;20046;-76
2023/01/31 12:09:55;;;;;;;144.93;69.72;;;6.60;1.00;;;;;;5101483;28;20090;-75
2023/01/31 12:12:28;;;;;;;66.35;37.28;;;6.60;1.00;;;;;;5101599;28;20067;-76
2023/01/31 12:14:59;;;;;;;64.93;34.55;;;6.60;1.00;;;;;;5098920;28;20117;-75
2023/01/31 12:17:30;;;;;;;52.95;26.90;;;6.60;1.00;;;;;;5101250;28;20036;-76
2023/01/31 12:20:20;;;;;;;34.83;21.83;;;6.50;1.00;;;;;;5099866;28;20082;-74
2023/01/31 12:22:55;;;;;;;36.03;19.48;;;6.50;1.00;;;;;;5099945;28;20036;-74
2023/01/31 12:25:29;;;;;;;31.33;18.30;;;6.50;1.00;;;;;;5100696;28;20044;-75
2023/01/31 12:28:12;;;;;;;21.85;13.77;;;6.40;1.00;;;;;;5100349;28;20063;-75
2023/01/31 12:31:07;;;;;;;24.90;14.32;;;6.40;1.00;;;;;;5099306;28;20042;-75
2023/01/31 12:33:52;;;;;;;28.63;13.93;;;6.50;1.00;;;;;;5101202;28;20391;-75
2023/01/31 12:36:45;;;;;;;18.05;10.63;;;6.40;1.00;;;;;;5099746;28;20040;-74
2023/01/31 12:39:37;;;;;;;21.33;11.85;;;6.50;1.00;;;;;;5100323;28;20131;-76
2023/01/31 12:42:34;;;;;;;21.80;11.55;;;6.50;1.00;;;;;;5102168;28;20131;-75
2023/01/31 12:45:19;;;;;;;17.90;11.00;;;6.40;1.00;;;;;;5100182;28;20052;-74
2023/01/31 12:48:18;;;;;;;20.83;10.75;;;6.40;1.00;;;;;;5099879;28;20510;-75
2023/01/31 12:50:50;;;;;;;18.23;11.15;;;6.50;1.00;;;;;;5089952;28;20044;-74
2023/01/31 12:53:48;;;;;;;17.58;11.30;;;6.50;1.00;;;;;;5100150;28;20047;-74
2023/01/31 12:56:47;;;;;;;19.85;11.75;;;6.70;1.00;;;;;;5099784;28;20039;-75
2023/01/31 12:59:31;;;;;;;22.63;12.15;;;6.60;1.00;;;;;;5101494;28;20039;-76
2023/01/31 13:02:16;;;;;;;20.33;11.80;;;6.50;1.00;;;;;;5098260;28;20122;-76
2023/01/31 13:04:51;;;;;;;27.58;15.55;;;6.50;1.00;;;;;;5100343;28;20031;-76
2023/01/31 13:07:26;;;;;;;28.50;17.30;;;6.60;1.00;;;;;;5099412;28;20522;-74
2023/01/31 13:09:58;;;;;;;27.15;16.00;;;6.70;1.00;;;;;;5099725;28;20087;-76